Time;durP1;ratioP1;P1;durP2;ratioP2;P2;SDS_P1;SDS_P2;PMS_P1;PMS_P2;Temp;Humidity;BMP_temperature;BMP_pressure;BME280_temperature;BME280_humidity;BME280_pressure;Samples;Min_cycle;Max_cycle;Signal;HPM_P1;HPM_P2
2022/01/12 00:02:01;;;;;;;138.27;42.72;;;3.80;99.90;;;;;;6077278;23;20448;-92
2022/01/12 00:04:27;;;;;;;149.90;44.37;;;3.80;99.90;;;;;;6100633;23;20017;-90
2022/01/12 00:06:52;;;;;;;143.67;44.80;;;3.80;99.90;;;;;;6100450;23;20021;-90
2022/01/12 00:09:18;;;;;;;145.03;44.80;;;3.80;99.90;;;;;;6100669;23;20518;-90
2022/01/12 00:11:44;;;;;;;170.23;45.70;;;3.80;99.90;;;;;;6100755;23;20020;-90
2022/01/12 00:14:10;;;;;;;135.60;43.57;;;3.80;99.90;;;;;;6100348;23;20018;-89
2022/01/12 00:16:36;;;;;;;159.10;43.27;;;3.90;99.90;;;;;;6076747;23;20049;-90
2022/01/12 00:19:02;;;;;;;184.77;48.75;;;3.90;99.90;;;;;;6100433;23;20089;-90
2022/01/12 00:21:28;;;;;;;173.47;44.83;;;3.90;99.90;;;;;;6100284;23;20462;-90
2022/01/12 00:23:56;;;;;;;151.10;43.83;;;3.90;99.90;;;;;;6076752;23;20018;-89
2022/01/12 00:34:20;;;;;;;166.65;43.58;;;3.90;99.90;;;;;;6100675;23;20025;-89
2022/01/12 00:36:45;;;;;;;180.37;45.17;;;3.90;99.90;;;;;;6100951;23;20025;-93
2022/01/12 00:39:11;;;;;;;220.50;49.90;;;3.90;99.90;;;;;;6100619;23;20021;-92
2022/01/12 00:41:38;;;;;;;166.70;46.80;;;3.90;99.90;;;;;;6100702;23;20056;-90
2022/01/12 00:44:09;;;;;;;175.73;46.67;;;3.90;99.90;;;;;;6100316;23;20033;-92
2022/01/12 00:46:36;;;;;;;219.43;49.47;;;4.00;99.90;;;;;;6125110;23;20467;-90
2022/01/12 00:49:02;;;;;;;260.65;54.35;;;3.90;99.90;;;;;;6126208;23;20026;-90
2022/01/12 00:51:33;;;;;;;212.80;48.00;;;3.90;99.90;;;;;;6076784;23;20037;-89
2022/01/12 00:54:00;;;;;;;213.75;48.97;;;4.00;99.90;;;;;;6100506;23;20254;-89
2022/01/12 00:56:26;;;;;;;195.45;47.83;;;4.00;99.90;;;;;;6100375;23;20060;-90
2022/01/12 00:58:52;;;;;;;220.60;49.60;;;4.00;99.90;;;;;;6100416;23;20018;-88
2022/01/12 01:01:22;;;;;;;243.23;51.08;;;4.00;99.90;;;;;;6100474;23;20460;-89
2022/01/12 01:03:49;;;;;;;182.05;46.38;;;4.00;99.90;;;;;;6076402;23;20029;-90
2022/01/12 01:06:16;;;;;;;242.57;48.95;;;4.00;99.90;;;;;;6076225;23;20017;-88
2022/01/12 01:08:43;;;;;;;234.02;51.50;;;4.00;99.90;;;;;;6100254;23;20018;-89
2022/01/12 01:11:09;;;;;;;250.18;51.10;;;4.00;99.90;;;;;;6100412;23;20022;-89
2022/01/12 01:13:43;;;;;;;221.90;48.33;;;4.00;99.90;;;;;;6100413;23;20523;-89
2022/01/12 01:25:31;;;;;;;271.55;47.53;;;4.10;99.90;;;;;;6043381;23;20106;-89
2022/01/12 01:27:57;;;;;;;255.25;44.25;;;4.10;99.90;;;;;;6077258;23;20040;-88
2022/01/12 01:30:22;;;;;;;331.67;50.73;;;4.10;99.90;;;;;;6101850;23;20503;-89
2022/01/12 01:32:49;;;;;;;235.23;43.37;;;4.10;99.90;;;;;;6102166;23;20014;-89
2022/01/12 01:35:15;;;;;;;289.35;46.45;;;4.10;99.90;;;;;;6101601;23;20029;-89
2022/01/12 01:37:41;;;;;;;233.90;44.88;;;4.20;99.90;;;;;;6078125;23;20025;-89
2022/01/12 01:40:11;;;;;;;203.27;43.72;;;4.10;99.90;;;;;;6078231;23;20013;-90
2022/01/12 01:42:55;;;;;;;261.15;44.53;;;4.10;99.90;;;;;;6102206;23;20024;-91
2022/01/12 01:53:38;;;;;;;255.50;44.40;;;4.10;99.90;;;;;;6102220;23;20026;-92
2022/01/12 01:56:07;;;;;;;289.73;47.13;;;4.10;99.90;;;;;;6101881;23;20049;-90
2022/01/12 01:58:33;;;;;;;257.10;45.25;;;4.10;99.90;;;;;;6102025;23;20089;-90
2022/01/12 03:16:18;;;;;;;81.75;26.60;;;4.10;99.90;;;;;;6154299;23;20029;-92
2022/01/12 03:18:46;;;;;;;75.55;26.27;;;4.10;99.90;;;;;;6136467;23;20032;-94
2022/01/12 03:21:14;;;;;;;56.50;22.10;;;4.00;99.90;;;;;;6136396;23;20044;-94
2022/01/12 03:23:40;;;;;;;77.72;25.20;;;4.00;99.90;;;;;;6135783;23;20160;-94
2022/01/12 03:26:09;;;;;;;64.97;24.85;;;4.00;99.90;;;;;;6135659;23;20477;-93
2022/01/12 04:20:47;;;;;;;253.52;22.80;;;3.20;99.90;;;;;;6097479;23;20030;-94
2022/01/12 04:23:19;;;;;;;222.38;22.98;;;3.10;99.90;;;;;;6101981;23;20026;-95
2022/01/12 04:25:48;;;;;;;179.98;18.35;;;3.10;99.90;;;;;;6101341;23;20077;-95
2022/01/12 04:28:15;;;;;;;179.73;18.77;;;3.10;99.90;;;;;;6101715;23;20109;-96
2022/01/12 04:30:41;;;;;;;111.13;17.52;;;3.00;99.90;;;;;;6101314;23;20022;-94
2022/01/12 04:33:07;;;;;;;66.97;13.10;;;3.00;99.90;;;;;;6101302;23;20021;-93
2022/01/12 04:35:37;;;;;;;64.60;14.37;;;2.90;99.90;;;;;;6101907;23;20018;-95
2022/01/12 04:38:11;;;;;;;71.25;15.23;;;3.00;99.90;;;;;;6142152;23;20049;-94
2022/01/12 04:40:38;;;;;;;25.70;12.82;;;2.90;99.90;;;;;;6115178;23;20018;-94
2022/01/12 04:43:03;;;;;;;18.40;11.37;;;2.90;99.90;;;;;;6113326;23;20029;-94
2022/01/12 04:50:50;;;;;;;41.72;13.02;;;2.80;99.90;;;;;;6100791;23;20022;-95
2022/01/12 04:53:17;;;;;;;;;;;2.80;99.90;;;;;;6102694;23;20048;-93
2022/01/12 04:55:43;;;;;;;24.35;11.93;;;2.80;99.90;;;;;;6078980;23;20393;-94
2022/01/12 04:58:09;;;;;;;21.63;11.90;;;2.80;99.90;;;;;;6103170;23;20017;-92
2022/01/12 05:00:36;;;;;;;27.35;12.82;;;2.70;99.90;;;;;;6103235;23;20408;-95
2022/01/12 05:13:46;;;;;;;32.78;14.23;;;2.70;99.90;;;;;;6103535;23;20025;-95
2022/01/12 05:16:12;;;;;;;37.63;14.27;;;2.70;99.90;;;;;;6102880;23;20022;-96
2022/01/12 05:18:40;;;;;;;43.72;14.95;;;2.70;99.90;;;;;;6102894;23;20014;-95
2022/01/12 05:21:07;;;;;;;74.65;17.58;;;2.70;99.90;;;;;;6102443;23;20018;-96
2022/01/12 05:24:10;;;;;;;;;;;;;;;;;;;;;
2022/01/12 06:03:10;;;;;;;119.20;13.35;;;2.50;99.90;;;;;;6186775;23;20032;-91
2022/01/12 06:05:35;;;;;;;144.02;14.57;;;2.50;99.90;;;;;;6136098;23;20451;-92
2022/01/12 06:08:01;;;;;;;68.40;10.73;;;2.50;99.90;;;;;;6136338;23;20020;-90
2022/01/12 06:10:28;;;;;;;20.43;9.97;;;2.40;99.90;;;;;;6137028;23;20052;-94
2022/01/12 06:15:29;;;;;;;192.10;17.13;;;2.40;99.90;;;;;;6157128;23;20025;-91
2022/01/12 06:17:55;;;;;;;63.47;10.80;;;2.40;99.90;;;;;;6107295;23;20021;-91
2022/01/12 06:20:21;;;;;;;68.27;10.80;;;2.40;99.90;;;;;;6131616;23;20466;-92
2022/01/12 06:22:46;;;;;;;97.27;13.07;;;2.40;99.90;;;;;;6131386;23;20032;-92
2022/01/12 06:25:15;;;;;;;80.40;10.23;;;2.40;99.90;;;;;;6131496;23;20014;-91
2022/01/12 06:27:50;;;;;;;77.70;9.48;;;2.40;99.90;;;;;;6131759;23;20021;-92
2022/01/12 06:33:22;;;;;;;34.05;7.65;;;2.30;99.90;;;;;;6129985;23;20478;-88
2022/01/12 06:35:48;;;;;;;51.85;8.52;;;2.30;99.90;;;;;;6130531;23;20056;-88
2022/01/12 06:38:13;;;;;;;26.60;7.00;;;2.30;99.90;;;;;;6130875;23;20017;-90
2022/01/12 06:40:39;;;;;;;43.85;7.97;;;2.30;99.90;;;;;;6131164;23;20024;-92
2022/01/12 06:43:05;;;;;;;20.33;6.07;;;2.30;99.90;;;;;;6156457;23;20017;-92
2022/01/12 06:45:54;;;;;;;85.45;10.15;;;2.30;99.90;;;;;;6158319;23;20013;-88
2022/01/12 06:52:01;;;;;;;40.22;7.18;;;2.20;99.90;;;;;;6159390;23;20032;-93
2022/01/12 06:54:27;;;;;;;53.75;7.10;;;2.20;99.90;;;;;;6108967;23;20048;-93
2022/01/12 06:57:03;;;;;;;27.45;6.03;;;2.20;99.90;;;;;;6161508;23;20486;-93
2022/01/12 06:59:28;;;;;;;23.07;5.83;;;2.20;99.90;;;;;;6137109;23;20053;-91
2022/01/12 07:01:54;;;;;;;32.73;6.63;;;2.20;99.90;;;;;;6138351;23;20013;-92
2022/01/12 07:08:32;;;;;;;24.65;6.22;;;2.10;99.90;;;;;;6131661;23;20041;-88
2022/01/12 07:11:18;;;;;;;130.77;10.20;;;2.10;99.90;;;;;;6131108;23;20017;-92
2022/01/12 07:13:44;;;;;;;16.88;6.00;;;2.10;99.90;;;;;;6130753;23;20025;-93
2022/01/12 07:16:11;;;;;;;39.38;6.97;;;2.00;99.90;;;;;;6130533;23;20022;-92
2022/01/12 07:18:37;;;;;;;44.80;8.07;;;2.00;99.90;;;;;;6131250;23;20025;-93
2022/01/12 07:21:03;;;;;;;29.38;5.85;;;2.00;99.90;;;;;;6131242;23;20344;-94
2022/01/12 07:23:29;;;;;;;25.98;5.97;;;2.00;99.90;;;;;;6131104;23;20071;-92
2022/01/12 07:25:56;;;;;;;35.30;6.05;;;2.00;99.90;;;;;;6131137;23;20014;-93
2022/01/12 07:28:22;;;;;;;34.65;6.22;;;1.90;99.90;;;;;;6131198;23;20039;-94
2022/01/12 07:30:49;;;;;;;26.92;5.70;;;1.90;99.90;;;;;;6130755;23;20025;-93
2022/01/12 07:33:15;;;;;;;35.10;5.63;;;1.80;99.90;;;;;;6155808;23;20064;-91
2022/01/12 07:35:42;;;;;;;22.17;8.38;;;1.80;99.90;;;;;;6130999;23;20017;-92
2022/01/12 07:38:08;;;;;;;20.60;6.88;;;1.70;99.90;;;;;;6131130;23;20036;-92
2022/01/12 07:40:35;;;;;;;33.72;6.82;;;1.70;99.90;;;;;;6142098;23;20407;-87
2022/01/12 07:43:05;;;;;;;21.90;5.97;;;1.70;99.90;;;;;;6100874;23;20126;-87
2022/01/12 07:45:31;;;;;;;36.03;6.68;;;1.70;99.90;;;;;;6125157;23;20045;-87
2022/01/12 07:47:57;;;;;;;31.08;5.95;;;1.60;99.90;;;;;;6100624;23;20018;-88
2022/01/12 07:50:28;;;;;;;35.30;6.77;;;1.60;99.90;;;;;;6101083;23;20460;-82
2022/01/12 07:52:54;;;;;;;30.58;5.95;;;1.60;99.90;;;;;;6124645;23;20046;-83
2022/01/12 07:55:21;;;;;;;36.70;6.85;;;1.60;99.90;;;;;;6125823;23;20129;-82
2022/01/12 07:57:47;;;;;;;48.90;7.28;;;1.60;99.90;;;;;;6124947;23;20029;-82
2022/01/12 08:00:14;;;;;;;17.88;7.35;;;1.60;99.90;;;;;;6124641;23;20068;-82
2022/01/12 08:02:40;;;;;;;24.80;8.30;;;1.60;99.90;;;;;;6124836;23;20073;-82
2022/01/12 08:05:14;;;;;;;50.20;10.30;;;1.70;99.90;;;;;;6128476;23;20014;-84
2022/01/12 08:07:49;;;;;;;21.67;9.10;;;1.80;99.90;;;;;;6126789;23;20022;-82
2022/01/12 08:10:27;;;;;;;73.30;15.00;;;1.80;99.90;;;;;;6124850;23;20018;-90
2022/01/12 08:12:53;;;;;;;59.38;14.55;;;1.80;99.90;;;;;;6100629;23;20033;-86
2022/01/12 08:15:18;;;;;;;47.60;12.98;;;1.90;99.90;;;;;;6125252;23;20336;-91
2022/01/12 08:17:44;;;;;;;34.83;10.03;;;1.90;99.90;;;;;;6124805;23;20026;-88
2022/01/12 08:20:12;;;;;;;48.53;12.50;;;1.90;99.90;;;;;;6126657;23;20016;-89
2022/01/12 08:22:38;;;;;;;35.35;10.57;;;1.90;99.90;;;;;;6126491;23;20014;-89
2022/01/12 08:25:13;;;;;;;59.35;10.35;;;1.90;99.90;;;;;;6127178;23;20097;-88
2022/01/12 08:27:39;;;;;;;63.13;10.90;;;2.00;99.90;;;;;;6100458;23;20022;-92
2022/01/12 08:30:07;;;;;;;104.72;10.85;;;2.00;99.90;;;;;;6100483;23;20077;-93
2022/01/12 08:32:33;;;;;;;136.05;13.00;;;2.00;99.90;;;;;;6125153;23;20018;-87
2022/01/12 08:34:58;;;;;;;80.85;11.93;;;2.00;99.90;;;;;;6126781;23;20018;-93
2022/01/12 08:37:24;;;;;;;47.85;9.65;;;2.00;99.90;;;;;;6125082;23;20070;-87
2022/01/12 08:39:51;;;;;;;26.10;15.43;;;1.90;99.90;;;;;;6125242;23;20017;-91
2022/01/12 08:42:17;;;;;;;55.33;27.20;;;1.90;99.90;;;;;;6126479;23;20510;-86
2022/01/12 08:44:43;;;;;;;57.10;13.87;;;1.90;99.90;;;;;;6126425;23;20321;-91
2022/01/12 08:47:14;;;;;;;45.43;20.73;;;2.00;99.90;;;;;;6126657;23;20025;-83
2022/01/12 08:49:41;;;;;;;66.82;17.23;;;2.00;99.90;;;;;;6100235;23;20021;-87
2022/01/12 08:52:07;;;;;;;155.52;22.70;;;2.00;99.90;;;;;;6124613;23;20055;-85
2022/01/12 08:54:32;;;;;;;63.72;17.83;;;2.10;99.90;;;;;;6126136;23;20069;-86
2022/01/12 08:56:58;;;;;;;48.37;14.23;;;2.10;99.90;;;;;;6100289;23;20022;-84
2022/01/12 08:59:24;;;;;;;28.53;10.47;;;2.10;99.90;;;;;;6126131;23;20026;-86
2022/01/12 09:02:13;;;;;;;36.53;9.77;;;2.20;99.90;;;;;;6126306;23;20021;-85
2022/01/12 09:05:07;;;;;;;86.30;12.65;;;2.20;99.90;;;;;;6125245;23;20026;-90
2022/01/12 09:07:36;;;;;;;62.20;13.00;;;2.30;99.90;;;;;;6124925;23;20029;-86
2022/01/12 09:10:03;;;;;;;61.08;16.83;;;2.30;99.90;;;;;;6124847;23;20054;-89
2022/01/12 09:12:29;;;;;;;116.38;20.95;;;2.20;99.90;;;;;;6125168;23;20029;-89
2022/01/12 09:14:55;;;;;;;49.07;11.17;;;2.30;99.90;;;;;;6100775;23;20018;-93
2022/01/12 09:17:23;;;;;;;81.70;11.15;;;2.30;99.90;;;;;;6125292;23;20021;-87
2022/01/12 09:19:50;;;;;;;55.58;12.27;;;2.30;99.90;;;;;;6100696;23;20428;-93
2022/01/12 09:22:16;;;;;;;63.20;10.20;;;2.30;99.90;;;;;;6125183;23;20378;-92
2022/01/12 09:24:44;;;;;;;87.88;13.63;;;2.40;99.90;;;;;;6125260;23;20017;-88
2022/01/12 09:27:11;;;;;;;55.90;10.32;;;2.40;99.90;;;;;;6125229;23;20106;-85
2022/01/12 09:29:37;;;;;;;93.85;13.82;;;2.40;99.90;;;;;;6125007;23;20534;-85
2022/01/12 09:32:03;;;;;;;123.30;17.10;;;2.50;99.90;;;;;;6125147;23;20510;-88
2022/01/12 09:34:28;;;;;;;130.20;18.13;;;2.50;99.90;;;;;;6124985;23;20018;-90
2022/01/12 09:36:54;;;;;;;49.03;14.00;;;2.50;99.90;;;;;;6124956;23;20086;-91
2022/01/12 09:39:20;;;;;;;84.03;15.43;;;2.50;99.90;;;;;;6125395;23;20447;-87
2022/01/12 09:41:45;;;;;;;84.93;14.23;;;2.60;99.90;;;;;;6126407;23;20065;-90
2022/01/12 09:44:12;;;;;;;77.73;11.33;;;2.60;99.90;;;;;;6128199;23;20026;-87
2022/01/12 09:46:38;;;;;;;50.75;9.93;;;2.70;99.90;;;;;;6126951;23;20096;-85
2022/01/12 09:49:06;;;;;;;105.13;20.43;;;2.70;99.90;;;;;;6102335;23;20138;-87
2022/01/12 09:51:32;;;;;;;45.50;10.30;;;2.70;99.90;;;;;;6126769;23;20439;-86
2022/01/12 09:53:58;;;;;;;102.30;12.70;;;2.80;99.90;;;;;;6128245;23;20022;-90
2022/01/12 09:56:29;;;;;;;72.35;13.40;;;2.80;99.90;;;;;;6128102;23;20025;-86
2022/01/12 09:58:58;;;;;;;59.20;12.90;;;2.80;99.90;;;;;;6128018;23;20373;-90
2022/01/12 10:01:33;;;;;;;68.10;10.55;;;2.80;99.90;;;;;;6126447;23;20018;-93
2022/01/12 10:04:11;;;;;;;66.93;9.93;;;2.80;99.90;;;;;;6151416;23;20018;-91
2022/01/12 10:06:53;;;;;;;67.97;12.18;;;2.80;99.90;;;;;;6127933;23;20018;-93
2022/01/12 10:09:33;;;;;;;44.17;9.52;;;2.80;99.90;;;;;;6126351;23;20018;-85
2022/01/12 10:12:01;;;;;;;58.33;11.48;;;2.90;99.90;;;;;;6126215;23;20018;-84
2022/01/12 10:14:48;;;;;;;62.33;10.10;;;2.90;99.90;;;;;;6128262;23;20029;-90
2022/01/12 10:17:16;;;;;;;67.30;17.92;;;2.90;99.90;;;;;;6127885;23;20025;-88
2022/01/12 10:19:42;;;;;;;55.47;10.45;;;2.90;99.90;;;;;;6127642;23;20068;-91
2022/01/12 10:22:11;;;;;;;57.05;24.25;;;3.00;99.90;;;;;;6127709;23;20049;-84
2022/01/12 10:24:43;;;;;;;225.95;125.10;;;3.10;99.90;;;;;;6127706;23;20026;-86
2022/01/12 10:27:18;;;;;;;52.95;12.02;;;3.10;99.90;;;;;;6101943;23;20025;-95
2022/01/12 10:29:45;;;;;;;103.63;27.73;;;3.20;99.90;;;;;;6126841;23;20105;-89
2022/01/12 10:32:16;;;;;;;44.38;12.95;;;3.30;99.90;;;;;;6126625;23;20033;-94
2022/01/12 10:34:47;;;;;;;49.53;14.35;;;3.30;99.90;;;;;;6128477;23;20024;-96
2022/01/12 10:37:19;;;;;;;51.17;11.88;;;3.30;99.90;;;;;;6128580;23;20481;-88
2022/01/12 10:39:50;;;;;;;56.63;13.55;;;3.40;99.90;;;;;;6127089;23;20014;-95
2022/01/12 10:45:06;;;;;;;39.90;12.52;;;3.40;99.90;;;;;;6127379;23;20352;-87
2022/01/12 10:47:32;;;;;;;45.38;12.10;;;3.50;99.90;;;;;;6101663;23;20046;-90
2022/01/12 10:50:10;;;;;;;53.78;12.68;;;3.50;99.90;;;;;;6101426;23;20022;-91
2022/01/12 10:52:47;;;;;;;37.65;11.98;;;3.50;99.90;;;;;;6098752;23;20045;-92
2022/01/12 10:55:15;;;;;;;62.95;14.02;;;3.60;99.90;;;;;;6125986;23;20452;-86
2022/01/12 10:57:46;;;;;;;52.83;12.95;;;3.60;99.90;;;;;;6101388;23;20014;-87
2022/01/12 11:00:19;;;;;;;45.75;11.85;;;3.70;99.90;;;;;;6101656;23;20033;-84
2022/01/12 11:02:50;;;;;;;39.55;12.57;;;3.70;99.90;;;;;;6101484;23;20053;-89
2022/01/12 11:05:17;;;;;;;42.90;15.02;;;3.80;99.90;;;;;;6101005;23;20022;-89
2022/01/12 11:07:43;;;;;;;33.85;12.40;;;3.90;99.90;;;;;;6101075;23;20021;-92
2022/01/12 11:10:10;;;;;;;34.67;12.90;;;3.90;99.90;;;;;;6101150;23;20025;-89
2022/01/12 11:12:37;;;;;;;35.90;13.30;;;4.00;99.90;;;;;;6101347;23;20018;-85
2022/01/12 11:15:12;;;;;;;37.42;13.63;;;4.00;99.90;;;;;;6127203;23;20046;-89
2022/01/12 11:17:39;;;;;;;43.00;14.55;;;4.10;99.90;;;;;;6101476;23;20018;-87
2022/01/12 11:20:11;;;;;;;33.40;13.68;;;4.20;99.90;;;;;;6077370;23;20018;-88
2022/01/12 11:22:39;;;;;;;47.65;14.93;;;4.20;99.90;;;;;;6102111;23;20014;-87
2022/01/12 11:25:17;;;;;;;40.13;14.82;;;4.30;99.90;;;;;;6101634;23;20024;-85
2022/01/12 11:27:43;;;;;;;43.30;14.88;;;4.40;99.90;;;;;;6101313;23;20025;-90
2022/01/12 11:30:20;;;;;;;41.50;14.98;;;4.50;99.90;;;;;;6100983;23;20093;-87
2022/01/12 11:32:56;;;;;;;34.63;13.73;;;4.50;99.90;;;;;;6101142;23;20025;-88
2022/01/12 11:35:26;;;;;;;38.05;15.27;;;4.50;99.90;;;;;;6100833;23;20016;-89
2022/01/12 11:37:57;;;;;;;45.88;17.95;;;4.60;99.90;;;;;;6101408;23;20399;-85
2022/01/12 11:40:35;;;;;;;47.30;14.52;;;4.60;99.90;;;;;;6077174;23;20018;-89
2022/01/12 11:43:02;;;;;;;42.30;14.02;;;4.70;99.90;;;;;;6122163;23;20014;-84
2022/01/12 11:45:28;;;;;;;;;;;4.70;99.90;;;;;;6101680;23;20352;-89
2022/01/12 11:47:54;;;;;;;44.30;14.85;;;4.70;99.90;;;;;;6100853;23;19916;-92
2022/01/12 11:50:19;;;;;;;50.50;16.70;;;4.70;99.90;;;;;;6077162;23;20384;-93
2022/01/12 11:52:45;;;;;;;47.50;15.73;;;4.70;99.90;;;;;;6077094;23;20343;-89
2022/01/12 11:55:14;;;;;;;48.03;15.60;;;4.70;99.90;;;;;;6101233;23;20040;-89
2022/01/12 11:57:45;;;;;;;53.25;15.82;;;4.70;99.90;;;;;;6100974;23;20014;-91
2022/01/12 12:00:13;;;;;;;48.85;15.15;;;4.70;99.90;;;;;;6101606;23;20018;-89
2022/01/12 12:02:45;;;;;;;46.20;16.45;;;4.70;99.90;;;;;;6101018;23;20061;-95
2022/01/12 12:05:23;;;;;;;46.85;15.98;;;4.70;99.90;;;;;;6130620;23;20028;-94
2022/01/12 12:07:50;;;;;;;;;;;4.70;99.90;;;;;;6102882;23;20439;-86
2022/01/12 12:10:18;;;;;;;52.53;18.73;;;4.70;99.90;;;;;;6127699;23;19916;-91
2022/01/12 12:12:44;;;;;;;56.70;16.80;;;4.70;99.90;;;;;;6101804;23;20021;-89
2022/01/12 12:15:12;;;;;;;55.27;16.83;;;4.70;99.90;;;;;;6101399;23;20093;-87
2022/01/12 12:17:40;;;;;;;65.03;16.27;;;4.80;99.90;;;;;;6101639;23;20108;-88
2022/01/12 12:20:09;;;;;;;55.58;17.23;;;4.80;99.90;;;;;;6127768;23;20018;-90
2022/01/12 12:22:39;;;;;;;48.58;17.00;;;4.80;99.90;;;;;;6126836;23;20029;-84
2022/01/12 12:25:07;;;;;;;62.22;18.73;;;4.80;99.90;;;;;;6126944;23;20321;-91
2022/01/12 12:27:35;;;;;;;67.45;19.30;;;4.90;99.90;;;;;;6127643;23;20022;-93
2022/01/12 12:30:03;;;;;;;59.10;18.63;;;4.90;99.90;;;;;;6130243;23;20022;-92
2022/01/12 12:32:49;;;;;;;62.90;19.00;;;4.90;99.90;;;;;;6102201;23;20018;-86
2022/01/12 12:35:24;;;;;;;62.95;20.67;;;5.00;99.90;;;;;;6102856;23;20444;-89
2022/01/12 12:38:00;;;;;;;67.10;20.85;;;5.00;99.90;;;;;;6104211;23;20021;-85
2022/01/12 12:40:30;;;;;;;59.38;18.77;;;5.10;99.90;;;;;;6128536;23;20014;-88
2022/01/12 12:43:15;;;;;;;63.08;19.85;;;5.10;99.90;;;;;;6127743;23;20018;-94
2022/01/12 12:45:45;;;;;;;66.05;19.65;;;5.20;99.90;;;;;;6126652;23;20081;-96
2022/01/12 12:48:18;;;;;;;62.15;19.35;;;5.20;99.90;;;;;;6126505;23;20022;-88
2022/01/12 12:50:45;;;;;;;70.93;20.92;;;5.20;99.90;;;;;;6126977;23;20321;-91
2022/01/12 12:53:11;;;;;;;64.75;19.67;;;5.30;99.90;;;;;;6126603;23;20018;-89
2022/01/12 12:55:40;;;;;;;57.13;20.97;;;5.30;99.90;;;;;;6127514;23;20054;-92
2022/01/12 12:58:07;;;;;;;68.97;19.40;;;5.30;99.90;;;;;;6100846;23;20018;-94
2022/01/12 13:00:34;;;;;;;60.13;19.70;;;5.30;99.90;;;;;;6126422;23;20028;-90
2022/01/12 13:03:02;;;;;;;58.67;19.08;;;5.40;99.90;;;;;;6126785;23;20022;-90
2022/01/12 13:05:31;;;;;;;58.95;18.00;;;5.40;99.90;;;;;;6126625;23;20018;-88
2022/01/12 13:07:57;;;;;;;50.85;18.13;;;5.50;99.90;;;;;;6100713;23;20029;-94
2022/01/12 13:10:26;;;;;;;52.30;18.38;;;5.50;99.90;;;;;;6126552;23;20026;-92
2022/01/12 13:12:58;;;;;;;55.00;19.35;;;5.50;99.90;;;;;;6102056;23;20060;-91
2022/01/12 13:15:30;;;;;;;53.65;17.77;;;5.60;99.90;;;;;;6102678;23;20025;-91
2022/01/12 13:18:08;;;;;;;42.47;16.75;;;5.60;99.90;;;;;;6102964;23;20053;-92
2022/01/12 13:23:25;;;;;;;87.30;38.20;;;5.60;99.90;;;;;;6127901;23;20032;-84
2022/01/12 13:25:56;;;;;;;51.97;23.73;;;5.60;99.90;;;;;;6128242;23;20018;-91
2022/01/12 13:28:22;;;;;;;54.67;27.67;;;5.70;99.90;;;;;;6128627;23;20465;-86
2022/01/12 13:31:03;;;;;;;51.90;26.23;;;5.70;99.90;;;;;;6128302;23;20018;-88
2022/01/12 13:33:30;;;;;;;42.97;18.40;;;5.70;99.90;;;;;;6102663;23;20022;-94
2022/01/12 13:35:58;;;;;;;37.88;15.27;;;5.70;99.90;;;;;;6128419;23;20029;-88
2022/01/12 13:38:32;;;;;;;36.33;14.30;;;5.70;99.90;;;;;;6102397;23;20440;-85
2022/01/12 13:41:09;;;;;;;40.00;14.52;;;5.70;99.90;;;;;;6078425;23;20077;-84
2022/01/12 13:43:36;;;;;;;32.13;13.43;;;5.70;99.90;;;;;;6127918;23;20050;-88
2022/01/12 13:46:11;;;;;;;33.90;13.05;;;5.80;99.90;;;;;;6127975;23;20026;-91
2022/01/12 13:48:40;;;;;;;41.53;13.75;;;5.80;99.90;;;;;;6102243;23;20109;-90
2022/01/12 13:51:06;;;;;;;29.27;14.13;;;5.80;99.90;;;;;;6101596;23;20022;-85
2022/01/12 13:53:36;;;;;;;37.07;14.60;;;5.80;99.90;;;;;;6128049;23;20022;-91
2022/01/12 13:56:03;;;;;;;35.65;14.50;;;5.80;99.90;;;;;;6102056;23;20020;-85
2022/01/12 13:58:30;;;;;;;40.17;15.55;;;5.80;99.90;;;;;;6127972;23;20018;-89
2022/01/12 14:01:02;;;;;;;27.48;13.82;;;5.80;99.90;;;;;;6102169;23;20092;-91
2022/01/12 14:03:28;;;;;;;32.38;14.32;;;5.80;99.90;;;;;;6127667;23;20014;-82
2022/01/12 14:05:59;;;;;;;35.17;14.23;;;5.80;99.90;;;;;;6127826;23;20339;-84
2022/01/12 14:08:41;;;;;;;36.92;12.82;;;5.80;99.90;;;;;;6101834;23;20022;-87
2022/01/12 14:11:07;;;;;;;32.63;12.38;;;5.80;99.90;;;;;;6077727;23;20026;-88
2022/01/12 14:13:40;;;;;;;37.75;13.15;;;5.70;99.90;;;;;;6127908;23;20092;-83
2022/01/12 14:16:07;;;;;;;39.22;13.55;;;5.70;99.90;;;;;;6127851;23;20032;-88
2022/01/12 14:18:33;;;;;;;31.02;11.90;;;5.70;99.90;;;;;;6127250;23;20101;-83
2022/01/12 14:20:59;;;;;;;29.07;12.20;;;5.60;99.90;;;;;;6127314;23;20053;-86
2022/01/12 14:23:25;;;;;;;28.40;11.80;;;5.60;99.90;;;;;;6101251;23;20018;-85
2022/01/12 14:25:52;;;;;;;35.42;12.18;;;5.60;99.90;;;;;;6126772;23;20089;-83
2022/01/12 14:28:31;;;;;;;32.92;12.48;;;5.50;99.90;;;;;;6127542;23;20396;-86
2022/01/12 14:30:57;;;;;;;26.85;12.10;;;5.50;99.90;;;;;;6101482;23;20356;-87
2022/01/12 14:33:23;;;;;;;33.83;13.13;;;5.50;99.90;;;;;;6127192;23;20076;-87
2022/01/12 14:35:50;;;;;;;29.27;12.37;;;5.50;99.90;;;;;;6127878;23;20731;-90
2022/01/12 14:38:16;;;;;;;26.02;12.55;;;5.40;99.90;;;;;;6077759;23;20018;-90
2022/01/12 14:40:42;;;;;;;33.90;13.33;;;5.40;99.90;;;;;;6101566;23;20022;-90
2022/01/12 14:45:57;;;;;;;30.15;13.57;;;5.30;99.90;;;;;;6127545;23;20030;-94
2022/01/12 14:48:23;;;;;;;33.00;15.88;;;5.20;99.90;;;;;;6078244;23;20341;-93
2022/01/12 14:50:54;;;;;;;30.83;13.53;;;5.20;99.90;;;;;;6101942;23;20025;-92
2022/01/12 14:53:21;;;;;;;30.70;13.20;;;5.20;99.90;;;;;;6101837;23;20025;-95
2022/01/12 14:55:51;;;;;;;34.42;13.50;;;5.10;99.90;;;;;;6102105;23;20018;-94
2022/01/12 14:58:19;;;;;;;37.35;14.50;;;5.10;99.90;;;;;;6101940;23;20014;-91
2022/01/12 15:00:46;;;;;;;35.08;16.08;;;5.10;99.90;;;;;;6101834;23;20432;-92
2022/01/12 15:03:12;;;;;;;41.20;16.20;;;5.10;99.90;;;;;;6101919;23;20018;-94
2022/01/12 15:05:43;;;;;;;45.22;15.63;;;5.10;99.90;;;;;;6101410;23;20123;-89
2022/01/12 15:08:11;;;;;;;36.40;15.40;;;5.10;99.90;;;;;;6101670;23;20439;-91
2022/01/12 15:10:36;;;;;;;32.42;14.15;;;5.10;99.90;;;;;;6101319;23;20026;-91
2022/01/12 15:13:14;;;;;;;45.10;18.93;;;5.00;99.90;;;;;;6101622;23;20101;-92
2022/01/12 15:15:57;;;;;;;44.83;19.52;;;5.10;99.90;;;;;;6103997;23;20054;-92
2022/01/12 15:21:06;;;;;;;47.25;18.40;;;5.10;99.90;;;;;;6176719;23;20024;-86
2022/01/12 15:23:32;;;;;;;40.43;16.40;;;5.10;99.90;;;;;;6135601;23;20029;-92
2022/01/12 15:25:58;;;;;;;40.27;15.40;;;5.10;99.90;;;;;;6159924;23;20020;-91
2022/01/12 15:28:24;;;;;;;38.37;15.43;;;5.10;99.90;;;;;;6160009;23;20024;-89
2022/01/12 15:31:33;;;;;;;41.47;15.90;;;5.10;99.90;;;;;;6159790;23;20438;-85
2022/01/12 15:34:14;;;;;;;41.38;15.88;;;5.10;99.90;;;;;;6135150;23;20017;-89
2022/01/12 15:36:52;;;;;;;46.80;18.73;;;5.10;99.90;;;;;;6135837;23;20542;-91
2022/01/12 15:39:18;;;;;;;47.70;18.55;;;5.10;99.90;;;;;;6135733;23;20017;-88
2022/01/12 15:41:47;;;;;;;48.90;20.23;;;5.10;99.90;;;;;;6135702;23;20010;-91
2022/01/12 15:44:13;;;;;;;55.20;20.20;;;5.10;99.90;;;;;;6135676;23;20032;-90
2022/01/12 15:47:18;;;;;;;54.90;18.77;;;5.10;99.90;;;;;;6135958;23;20458;-88
2022/01/12 15:49:53;;;;;;;55.05;19.17;;;5.10;99.90;;;;;;6132313;23;20076;-91
2022/01/12 15:52:20;;;;;;;46.28;18.02;;;5.10;99.90;;;;;;6159494;23;20025;-90
2022/01/12 15:54:46;;;;;;;54.25;19.02;;;5.10;99.90;;;;;;6159961;23;20477;-90
2022/01/12 15:57:12;;;;;;;51.08;19.30;;;5.10;99.90;;;;;;6159883;23;20017;-85
2022/01/12 15:59:38;;;;;;;57.90;19.83;;;5.10;99.90;;;;;;6135001;23;20017;-88
2022/01/12 16:02:04;;;;;;;61.88;20.10;;;5.20;99.90;;;;;;6134654;23;20391;-89
2022/01/12 16:04:30;;;;;;;55.03;20.10;;;5.20;99.90;;;;;;6159790;23;20083;-88
2022/01/12 16:06:56;;;;;;;62.85;19.48;;;5.20;99.90;;;;;;6135487;23;20461;-92
2022/01/12 16:09:22;;;;;;;60.33;20.33;;;5.20;99.90;;;;;;6135514;23;20025;-92
2022/01/12 16:11:49;;;;;;;56.33;20.40;;;5.20;99.90;;;;;;6135220;23;20021;-95
2022/01/12 16:14:15;;;;;;;57.85;20.25;;;5.20;99.90;;;;;;6135801;23;20096;-94
2022/01/12 16:21:48;;;;;;;53.03;19.88;;;5.20;99.90;;;;;;6125302;23;20088;-89
2022/01/12 16:24:15;;;;;;;43.57;17.23;;;5.20;99.90;;;;;;6130404;23;20025;-88
2022/01/12 16:26:42;;;;;;;49.95;18.70;;;5.20;99.90;;;;;;6130076;23;20036;-89
2022/01/12 16:29:31;;;;;;;54.22;17.50;;;5.20;99.90;;;;;;6129685;23;20454;-91
2022/01/12 16:31:57;;;;;;;48.30;18.15;;;5.10;99.90;;;;;;6141302;23;20037;-87
2022/01/12 16:34:23;;;;;;;53.90;18.92;;;5.10;99.90;;;;;;6100390;23;20026;-86
2022/01/12 16:36:49;;;;;;;50.17;19.13;;;5.10;99.90;;;;;;6124882;23;20017;-87
2022/01/12 16:39:15;;;;;;;50.53;18.97;;;5.10;99.90;;;;;;6100333;23;20380;-85
2022/01/12 16:41:40;;;;;;;40.23;17.63;;;5.10;99.90;;;;;;6100343;23;20096;-87
2022/01/12 16:44:07;;;;;;;46.80;19.13;;;5.10;99.90;;;;;;6100343;23;20014;-89